Time;durP1;ratioP1;P1;durP2;ratioP2;P2;SDS_P1;SDS_P2;PMS_P1;PMS_P2;Temp;Humidity;BMP_temperature;BMP_pressure;BME280_temperature;BME280_humidity;BME280_pressure;Samples;Min_cycle;Max_cycle;Signal;HPM_P1;HPM_P2
2023/05/06 00:01:07;;;;;;;0.10;0.10;;;;;;;15.94;63.29;101694.13;5086974;28;20029;-86
2023/05/06 00:03:33;;;;;;;0.10;0.10;;;;;;;15.89;63.50;101696.03;5078805;28;20419;-86
2023/05/06 00:06:01;;;;;;;0.20;0.20;;;;;;;15.85;63.65;101695.28;5084849;28;20096;-86
2023/05/06 00:08:27;;;;;;;0.10;0.10;;;;;;;15.82;63.69;101703.34;5079799;28;20032;-86
2023/05/06 00:10:53;;;;;;;0.10;0.10;;;;;;;15.78;63.82;101694.50;5082538;28;20028;-85
2023/05/06 00:13:19;;;;;;;0.10;0.10;;;;;;;15.76;63.67;101706.16;5080254;28;20037;-85
2023/05/06 00:15:45;;;;;;;0.05;0.05;;;;;;;15.72;63.86;101692.00;5078262;28;20025;-85
2023/05/06 00:18:13;;;;;;;0.30;0.30;;;;;;;15.69;63.47;101694.78;5086052;28;20062;-86
2023/05/06 00:20:40;;;;;;;0.10;0.10;;;;;;;15.66;63.56;101701.09;5081069;28;20024;-85
2023/05/06 00:23:06;;;;;;;0.00;0.00;;;;;;;15.65;63.61;101690.41;5079960;28;20467;-86
2023/05/06 00:25:32;;;;;;;0.10;0.10;;;;;;;15.62;63.80;101693.19;5078515;28;20526;-86
2023/05/06 00:27:59;;;;;;;0.22;0.22;;;;;;;15.61;63.74;101688.75;5069237;28;20040;-85
2023/05/06 00:30:25;;;;;;;0.45;0.45;;;;;;;15.60;63.80;101687.00;5084515;28;20039;-87
2023/05/06 00:32:51;;;;;;;0.20;0.20;;;;;;;15.59;64.07;101682.56;5075789;28;20093;-86
2023/05/06 00:35:17;;;;;;;0.10;0.10;;;;;;;15.58;64.02;101686.19;5084944;28;20036;-84
2023/05/06 00:37:45;;;;;;;0.08;0.08;;;;;;;15.57;64.07;101689.78;5075301;28;20052;-86
2023/05/06 00:40:12;;;;;;;0.10;0.10;;;;;;;15.54;63.72;101685.41;5083458;28;20039;-86
2023/05/06 00:42:38;;;;;;;0.10;0.10;;;;;;;15.51;63.82;101686.38;5076085;28;20031;-86
2023/05/06 00:45:05;;;;;;;0.00;0.00;;;;;;;15.47;63.75;101682.00;5078494;28;20032;-84
2023/05/06 00:47:32;;;;;;;0.10;0.10;;;;;;;15.44;63.83;101674.09;5075880;28;20040;-86
2023/05/06 00:49:58;;;;;;;0.10;0.10;;;;;;;15.43;63.82;101676.81;5077397;28;20032;-86
2023/05/06 00:52:25;;;;;;;0.10;0.10;;;;;;;15.40;63.88;101667.06;5069826;28;20060;-84
2023/05/06 00:54:51;;;;;;;0.00;0.00;;;;;;;15.38;63.85;101674.25;5075990;28;20058;-86
2023/05/06 00:57:17;;;;;;;0.20;0.20;;;;;;;15.35;64.39;101668.97;5091212;28;20074;-84
2023/05/06 00:59:43;;;;;;;0.15;0.15;;;;;;;15.34;64.31;101668.13;5095772;28;20028;-86
2023/05/06 01:02:09;;;;;;;0.30;0.30;;;;;;;15.33;64.01;101665.50;5084743;28;20431;-85
2023/05/06 01:04:36;;;;;;;0.10;0.10;;;;;;;15.32;64.19;101663.72;5078760;28;20099;-86
2023/05/06 01:10:09;;;;;;;0.10;0.10;;;;;;;15.38;63.82;101666.25;5091533;27;1196229;-81
2023/05/06 01:12:47;;;;;;;0.10;0.10;;;;;;;15.32;64.36;101659.25;5132331;27;20062;-80
2023/05/06 01:15:20;;;;;;;0.10;0.10;;;;;;;15.19;64.48;101655.19;5105707;27;20024;-80
2023/05/06 01:17:50;;;;;;;0.40;0.40;;;;;;;15.13;64.65;101661.53;5111284;28;20020;-79
2023/05/06 01:20:17;;;;;;;0.10;0.10;;;;;;;15.11;64.72;101658.03;5109566;28;20065;-80
2023/05/06 01:22:43;;;;;;;0.10;0.10;;;;;;;15.14;64.63;101665.97;5105941;28;20056;-80
2023/05/06 01:25:19;;;;;;;0.10;0.10;;;;;;;15.14;65.05;101659.75;5120006;28;20082;-80
2023/05/06 01:27:45;;;;;;;0.10;0.10;;;;;;;15.07;64.72;101668.84;5118575;28;20035;-80
2023/05/06 01:30:12;;;;;;;0.20;0.20;;;;;;;15.04;64.78;101669.78;5110688;28;20016;-79
2023/05/06 01:33:03;;;;;;;0.10;0.10;;;;;;;15.12;64.47;101673.13;5105733;28;20047;-80
2023/05/06 01:35:45;;;;;;;0.03;0.03;;;;;;;15.10;64.83;101676.75;5105759;28;20036;-79
2023/05/06 01:41:15;;;;;;;0.00;0.00;;;;;;;15.18;64.85;101678.31;5107990;27;20414;-80
2023/05/06 01:43:43;;;;;;;0.10;0.10;;;;;;;15.17;64.96;101676.56;5055196;28;20033;-80
2023/05/06 01:46:16;;;;;;;0.10;0.10;;;;;;;15.19;64.80;101669.41;5054686;28;20405;-80
2023/05/06 01:48:44;;;;;;;0.10;0.10;;;;;;;15.13;64.98;101674.03;5049826;28;20112;-81
2023/05/06 01:51:10;;;;;;;0.10;0.10;;;;;;;15.09;64.95;101678.56;5059258;28;20033;-81
2023/05/06 01:53:36;;;;;;;1.48;0.68;;;;;;;15.06;64.92;101680.44;5052908;28;20060;-81
2023/05/06 01:56:02;;;;;;;0.20;0.20;;;;;;;15.03;65.02;101684.06;5052942;28;20237;-80
2023/05/06 01:58:28;;;;;;;0.10;0.10;;;;;;;14.99;64.95;101685.03;5050377;28;20047;-80
2023/05/06 02:00:54;;;;;;;0.10;0.10;;;;;;;15.00;64.72;101678.78;5051345;28;20152;-80
2023/05/06 02:03:21;;;;;;;0.08;0.08;;;;;;;14.99;64.75;101680.59;5053901;28;20045;-80
2023/05/06 02:05:47;;;;;;;0.10;0.10;;;;;;;14.97;64.59;101682.41;5054748;28;20033;-80
2023/05/06 02:08:13;;;;;;;0.32;0.32;;;;;;;14.94;64.68;101690.50;5049827;28;20108;-79
2023/05/06 02:10:39;;;;;;;0.57;0.57;;;;;;;14.88;64.88;101694.19;5049712;28;20025;-80
2023/05/06 02:13:05;;;;;;;1.05;0.65;;;;;;;14.88;64.88;101691.50;5053698;28;20033;-80
2023/05/06 02:15:32;;;;;;;0.10;0.10;;;;;;;14.87;65.00;101696.91;5054561;28;20112;-81
2023/05/06 02:17:58;;;;;;;0.28;0.28;;;;;;;14.84;64.79;101691.63;5054080;28;20071;-80
2023/05/06 02:20:25;;;;;;;0.10;0.10;;;;;;;14.77;65.04;101693.56;5049518;28;20387;-81
2023/05/06 02:22:51;;;;;;;0.10;0.10;;;;;;;14.74;65.33;101696.28;5042471;28;20104;-80
2023/05/06 02:25:17;;;;;;;0.10;0.10;;;;;;;14.72;65.42;101695.47;5058017;28;20489;-79
2023/05/06 02:27:43;;;;;;;0.05;0.05;;;;;;;14.71;65.20;101696.38;5055066;28;20409;-79
2023/05/06 02:30:10;;;;;;;0.10;0.10;;;;;;;14.68;65.31;101691.13;5060550;28;20036;-80
2023/05/06 02:32:36;;;;;;;0.45;0.45;;;;;;;14.67;65.17;101686.72;5047304;28;20114;-81
2023/05/06 02:35:03;;;;;;;0.00;0.00;;;;;;;14.65;65.11;101691.19;5051459;28;20041;-81
2023/05/06 02:37:29;;;;;;;0.05;0.05;;;;;;;14.64;65.07;101684.06;5042890;28;20041;-78
2023/05/06 02:39:55;;;;;;;0.10;0.10;;;;;;;14.64;65.17;101689.41;5051778;28;20045;-79
2023/05/06 02:42:21;;;;;;;0.03;0.03;;;;;;;14.60;65.27;101688.59;5064869;28;20041;-79
2023/05/06 02:44:47;;;;;;;0.05;0.05;;;;;;;14.59;65.44;101689.50;5053588;28;20025;-80
2023/05/06 02:47:13;;;;;;;0.10;0.10;;;;;;;14.59;65.44;101688.63;5055458;28;20144;-80
2023/05/06 02:49:40;;;;;;;0.30;0.30;;;;;;;14.57;65.46;101689.53;5052576;28;20025;-80
2023/05/06 02:52:06;;;;;;;0.03;0.03;;;;;;;14.55;65.56;101694.06;5038478;28;20494;-80
2023/05/06 02:54:32;;;;;;;0.10;0.10;;;;;;;14.55;65.57;101694.06;5041062;28;20052;-81
2023/05/06 02:56:58;;;;;;;0.10;0.10;;;;;;;14.54;65.41;101691.41;5043999;28;20037;-79
2023/05/06 02:59:24;;;;;;;0.08;0.08;;;;;;;14.51;65.57;101684.34;5037860;28;20116;-79
2023/05/06 03:01:50;;;;;;;0.10;0.10;;;;;;;14.51;65.62;101689.69;5046455;28;20129;-81
2023/05/06 03:04:17;;;;;;;0.10;0.10;;;;;;;14.51;65.53;101691.50;5038328;28;20087;-80
2023/05/06 03:06:43;;;;;;;0.10;0.10;;;;;;;14.50;65.66;101693.25;5029161;28;20117;-80
2023/05/06 03:09:09;;;;;;;0.10;0.10;;;;;;;14.49;65.73;101688.88;5042540;28;20028;-78
2023/05/06 03:11:35;;;;;;;0.85;0.85;;;;;;;14.48;65.59;101689.78;5041717;28;20051;-79
2023/05/06 03:14:01;;;;;;;0.15;0.15;;;;;;;14.47;65.54;101688.00;5042299;28;20037;-78
2023/05/06 03:16:27;;;;;;;0.63;0.63;;;;;;;14.47;65.49;101685.34;5045600;28;20081;-81
2023/05/06 03:18:53;;;;;;;0.10;0.10;;;;;;;14.46;65.61;101678.25;5042030;28;20037;-80
2023/05/06 03:21:19;;;;;;;0.10;0.10;;;;;;;14.41;65.91;101682.81;5039339;28;20044;-80
2023/05/06 03:23:45;;;;;;;0.10;0.10;;;;;;;14.41;65.62;101680.16;5030990;28;20125;-80
2023/05/06 03:26:11;;;;;;;0.17;0.17;;;;;;;14.40;65.48;101684.63;5036553;28;20037;-80
2023/05/06 03:28:38;;;;;;;0.10;0.10;;;;;;;14.39;65.41;101687.28;5031700;28;20036;-80
2023/05/06 03:31:04;;;;;;;0.30;0.30;;;;;;;14.40;65.41;101675.72;5037220;28;20029;-80
2023/05/06 03:33:30;;;;;;;0.20;0.20;;;;;;;14.38;65.37;101680.19;5035172;28;20029;-80
2023/05/06 03:35:56;;;;;;;0.10;0.10;;;;;;;14.37;65.40;101683.81;5034112;28;20039;-80
2023/05/06 03:38:22;;;;;;;0.10;0.10;;;;;;;14.38;65.30;101685.53;5036991;28;20041;-80
2023/05/06 03:40:48;;;;;;;0.10;0.10;;;;;;;14.38;65.35;101681.09;5044040;28;20037;-80
2023/05/06 03:43:14;;;;;;;0.08;0.08;;;;;;;14.42;65.33;101687.25;5042286;28;20048;-80
2023/05/06 03:45:40;;;;;;;0.10;0.10;;;;;;;14.40;65.23;101678.38;5047334;28;20033;-80
2023/05/06 03:48:06;;;;;;;0.10;0.10;;;;;;;14.41;65.42;101682.81;5048938;28;20029;-79
2023/05/06 03:50:32;;;;;;;0.10;0.10;;;;;;;14.43;65.29;101689.00;5050494;28;20021;-80
2023/05/06 03:52:58;;;;;;;0.60;0.38;;;;;;;14.44;65.43;101687.19;5049401;28;20033;-81
2023/05/06 03:55:24;;;;;;;0.45;0.45;;;;;;;14.44;65.36;101680.06;5046002;28;20049;-79
2023/05/06 03:57:50;;;;;;;0.15;0.15;;;;;;;14.46;65.49;101683.59;5036871;28;20117;-79
2023/05/06 04:00:17;;;;;;;0.10;0.10;;;;;;;14.50;65.41;101685.25;5042794;28;20546;-81
2023/05/06 04:02:43;;;;;;;0.05;0.05;;;;;;;14.52;65.52;101688.78;5041942;28;20120;-80
2023/05/06 04:05:09;;;;;;;0.05;0.05;;;;;;;14.56;65.59;101686.91;5037108;28;20460;-80
2023/05/06 04:07:35;;;;;;;0.08;0.08;;;;;;;14.57;65.65;101688.69;5034959;28;20512;-79
2023/05/06 04:10:01;;;;;;;0.05;0.05;;;;;;;14.63;65.61;101685.88;5043102;28;20116;-79
2023/05/06 04:12:27;;;;;;;0.38;0.38;;;;;;;14.65;65.66;101688.53;5041150;28;20101;-80
2023/05/06 04:14:53;;;;;;;0.25;0.25;;;;;;;14.69;65.62;101690.19;5043944;28;20037;-80
2023/05/06 04:17:19;;;;;;;0.10;0.10;;;;;;;14.75;65.55;101694.53;5040684;28;20101;-80
2023/05/06 04:19:46;;;;;;;0.10;0.10;;;;;;;14.78;65.65;101694.44;5037306;28;20056;-79
2023/05/06 04:22:12;;;;;;;0.10;0.10;;;;;;;14.80;65.83;101696.16;5037919;28;20072;-79
2023/05/06 04:24:40;;;;;;;0.10;0.10;;;;;;;14.85;65.82;101694.28;5035789;28;20029;-79
2023/05/06 04:27:06;;;;;;;0.20;0.20;;;;;;;14.91;65.92;101697.69;5036586;28;20033;-79
2023/05/06 04:29:32;;;;;;;0.10;0.10;;;;;;;14.95;65.76;101704.72;5037856;28;20036;-80
2023/05/06 04:31:58;;;;;;;0.10;0.10;;;;;;;14.98;65.76;101707.31;5036223;28;20025;-79
2023/05/06 04:34:26;;;;;;;0.13;0.13;;;;;;;15.03;65.53;101710.75;5036582;28;20033;-79
2023/05/06 04:36:53;;;;;;;0.00;0.00;;;;;;;15.06;65.55;101710.66;5032594;28;20086;-79
2023/05/06 04:39:19;;;;;;;0.00;0.00;;;;;;;15.10;65.73;101715.00;5036907;28;20120;-79
2023/05/06 04:41:45;;;;;;;0.10;0.10;;;;;;;15.13;65.62;101712.25;5037212;28;20041;-78
2023/05/06 04:44:11;;;;;;;0.10;0.10;;;;;;;15.17;65.59;101707.72;5034038;28;20057;-78
2023/05/06 04:46:37;;;;;;;0.00;0.00;;;;;;;15.22;65.60;101704.94;5031951;28;20032;-79
2023/05/06 04:49:03;;;;;;;0.73;0.73;;;;;;;15.27;65.53;101706.56;5025053;28;20037;-79
2023/05/06 04:51:30;;;;;;;0.00;0.00;;;;;;;15.31;65.50;101710.03;5035707;28;20030;-78
2023/05/06 04:53:56;;;;;;;0.10;0.10;;;;;;;15.37;65.48;101715.22;5036742;28;20024;-79
2023/05/06 04:56:22;;;;;;;0.10;0.10;;;;;;;15.39;65.45;101713.41;5038012;28;20033;-79
2023/05/06 04:58:48;;;;;;;0.10;0.10;;;;;;;15.44;65.73;101716.81;5038155;28;20034;-79
2023/05/06 05:01:15;;;;;;;0.10;0.10;;;;;;;15.47;65.88;101722.06;5036786;28;20037;-79
2023/05/06 05:03:41;;;;;;;0.38;0.38;;;;;;;15.49;65.31;101722.91;5031499;28;20079;-79
2023/05/06 05:06:07;;;;;;;0.10;0.10;;;;;;;15.52;65.38;101725.47;5026632;28;20029;-79
2023/05/06 05:08:33;;;;;;;0.10;0.10;;;;;;;15.55;65.59;101720.97;5033657;28;20059;-78
2023/05/06 05:10:59;;;;;;;0.10;0.10;;;;;;;15.57;65.81;101721.84;5030634;28;20033;-79
2023/05/06 05:13:25;;;;;;;0.10;0.10;;;;;;;15.60;65.60;101721.72;5034917;28;20123;-79
2023/05/06 05:15:54;;;;;;;0.10;0.10;;;;;;;15.66;65.45;101721.56;5030866;28;20127;-80
2023/05/06 05:18:20;;;;;;;0.10;0.10;;;;;;;15.70;65.91;101731.25;5028765;28;20413;-79
2023/05/06 05:20:46;;;;;;;0.10;0.10;;;;;;;15.75;65.71;101726.69;5030484;28;20382;-80
2023/05/06 05:23:12;;;;;;;0.10;0.10;;;;;;;15.82;65.69;101727.41;5031094;28;20450;-80
2023/05/06 05:25:38;;;;;;;0.10;0.10;;;;;;;15.87;65.32;101729.97;5033034;28;20037;-79
2023/05/06 05:28:04;;;;;;;0.20;0.20;;;;;;;15.94;65.42;101731.53;5040437;28;20037;-78
2023/05/06 05:30:30;;;;;;;0.10;0.10;;;;;;;15.99;65.46;101735.81;5041658;28;20112;-79
2023/05/06 05:32:56;;;;;;;0.10;0.10;;;;;;;15.99;65.78;101733.16;5032624;28;20025;-79
2023/05/06 05:35:23;;;;;;;0.00;0.00;;;;;;;16.04;65.60;101733.03;5032540;28;20133;-79
2023/05/06 05:37:49;;;;;;;0.08;0.08;;;;;;;16.12;65.47;101730.13;5034828;28;20036;-80
2023/05/06 05:40:15;;;;;;;0.10;0.10;;;;;;;16.17;65.55;101738.88;5033764;28;20040;-79
2023/05/06 05:42:41;;;;;;;0.03;0.03;;;;;;;16.24;65.30;101736.94;5032769;28;20037;-80
2023/05/06 05:45:07;;;;;;;0.00;0.00;;;;;;;16.28;65.43;101725.22;5034308;28;20426;-79
2023/05/06 05:47:34;;;;;;;0.60;0.60;;;;;;;16.32;65.63;101729.53;5030823;28;20037;-79
2023/05/06 05:50:00;;;;;;;0.10;0.10;;;;;;;16.36;65.62;101728.50;5034486;28;20037;-81
2023/05/06 05:52:26;;;;;;;0.10;0.10;;;;;;;16.41;65.61;101729.28;5037282;28;20045;-80
2023/05/06 05:54:52;;;;;;;0.13;0.13;;;;;;;16.46;65.38;101729.09;5045663;28;20099;-81
2023/05/06 05:57:18;;;;;;;1.95;0.40;;;;;;;16.53;65.58;101740.50;5041055;28;20041;-79
2023/05/06 05:59:44;;;;;;;0.40;0.40;;;;;;;16.59;65.39;101734.97;5042581;28;20033;-78
2023/05/06 06:02:10;;;;;;;0.22;0.22;;;;;;;16.59;65.25;101738.50;5034544;28;20721;-79
2023/05/06 06:04:36;;;;;;;0.10;0.10;;;;;;;16.64;65.64;101741.06;5036647;28;20032;-79
2023/05/06 06:07:02;;;;;;;0.10;0.10;;;;;;;16.74;65.55;101745.19;5032836;28;20045;-80
2023/05/06 06:09:28;;;;;;;0.10;0.10;;;;;;;16.79;65.54;101742.38;5030945;28;20090;-80
2023/05/06 06:11:54;;;;;;;0.40;0.40;;;;;;;16.87;65.24;101736.78;5030784;28;20117;-80
2023/05/06 06:14:21;;;;;;;0.10;0.10;;;;;;;16.96;65.54;101736.53;5032323;28;20026;-78
2023/05/06 06:17:16;;;;;;;0.10;0.10;;;;;;;17.04;65.42;101733.59;5034556;28;20034;-79
2023/05/06 06:19:34;;;;;;;0.10;0.10;;;;;;;17.09;65.29;101728.94;5026559;28;20073;-78
2023/05/06 06:22:00;;;;;;;0.20;0.20;;;;;;;17.11;65.06;101738.69;5027927;28;20506;-80
2023/05/06 06:24:26;;;;;;;0.22;0.17;;;;;;;17.14;65.13;101732.34;5031802;28;20437;-81
2023/05/06 06:26:52;;;;;;;0.10;0.10;;;;;;;17.21;65.15;101743.72;5035386;28;20517;-79
2023/05/06 06:29:18;;;;;;;0.52;0.32;;;;;;;17.27;64.96;101739.06;5031873;28;20049;-81
2023/05/06 06:31:44;;;;;;;0.00;0.00;;;;;;;17.37;65.06;101736.03;5033725;28;20033;-81
2023/05/06 06:34:11;;;;;;;0.20;0.20;;;;;;;17.47;64.89;101734.81;5037394;28;20033;-80
2023/05/06 06:36:39;;;;;;;0.10;0.10;;;;;;;17.56;64.92;101734.47;5039577;28;20109;-79
2023/05/06 06:39:05;;;;;;;0.50;0.50;;;;;;;17.69;64.69;101728.69;5032265;28;20045;-79
2023/05/06 06:41:31;;;;;;;0.30;0.30;;;;;;;17.78;64.83;101731.03;5035446;28;20462;-79
2023/05/06 06:43:57;;;;;;;0.10;0.10;;;;;;;17.89;64.66;101741.38;5026706;28;20045;-80
2023/05/06 06:46:24;;;;;;;0.05;0.05;;;;;;;18.01;64.74;101738.28;5023832;28;20049;-79
2023/05/06 06:48:50;;;;;;;0.10;0.10;;;;;;;18.11;64.56;101736.13;5036204;28;20126;-79
2023/05/06 06:51:16;;;;;;;0.10;0.10;;;;;;;18.20;64.41;101740.28;5037638;28;20090;-80
2023/05/06 06:53:42;;;;;;;0.10;0.10;;;;;;;18.30;64.37;101741.66;5036349;28;20032;-80
2023/05/06 06:56:11;;;;;;;0.10;0.10;;;;;;;18.40;64.29;101748.41;5037022;28;20053;-80
2023/05/06 06:58:37;;;;;;;0.30;0.30;;;;;;;18.48;64.37;101742.78;5034840;28;20088;-80
2023/05/06 07:01:03;;;;;;;0.10;0.10;;;;;;;18.58;64.32;101735.25;5035125;28;20397;-80
2023/05/06 07:03:29;;;;;;;0.10;0.10;;;;;;;18.70;64.11;101734.72;5038411;28;20037;-79
2023/05/06 07:05:55;;;;;;;0.10;0.10;;;;;;;18.82;64.22;101738.75;5031111;28;20033;-79
2023/05/06 07:08:21;;;;;;;0.17;0.17;;;;;;;18.92;63.98;101741.97;5029915;28;20045;-79
2023/05/06 07:10:48;;;;;;;0.10;0.10;;;;;;;19.01;63.69;101751.47;5029279;28;20120;-79
2023/05/06 07:13:14;;;;;;;0.40;0.40;;;;;;;19.06;63.57;101749.44;5038923;28;20041;-79
2023/05/06 07:15:40;;;;;;;0.10;0.10;;;;;;;19.13;63.53;101748.25;5032935;28;20487;-82
2023/05/06 07:18:06;;;;;;;0.28;0.28;;;;;;;19.23;63.68;101754.13;5027987;28;20021;-81
2023/05/06 07:20:32;;;;;;;0.10;0.10;;;;;;;19.33;63.33;101758.16;5035388;28;20021;-82
2023/05/06 07:22:58;;;;;;;0.65;0.65;;;;;;;19.42;63.28;101758.72;5038884;28;20057;-81
2023/05/06 07:25:26;;;;;;;0.10;0.10;;;;;;;19.46;63.23;101761.19;5040993;28;20045;-80
2023/05/06 07:27:55;;;;;;;0.28;0.28;;;;;;;19.52;63.11;101763.63;5041552;28;20049;-82
2023/05/06 07:30:21;;;;;;;0.15;0.15;;;;;;;19.56;63.06;101767.06;5040855;28;20068;-81
2023/05/06 07:32:47;;;;;;;0.20;0.20;;;;;;;19.63;63.11;101763.16;5043655;28;20033;-81
2023/05/06 07:35:13;;;;;;;0.30;0.30;;;;;;;19.71;62.90;101762.81;5044852;28;20025;-82
2023/05/06 07:37:44;;;;;;;0.10;0.10;;;;;;;19.80;63.00;101775.00;5046332;28;20052;-82
2023/05/06 07:40:10;;;;;;;0.10;0.10;;;;;;;19.85;63.04;101773.88;5039654;28;20116;-83
2023/05/06 07:42:36;;;;;;;0.10;0.10;;;;;;;19.93;62.81;101770.84;5046712;28;20029;-79
2023/05/06 07:45:03;;;;;;;0.30;0.30;;;;;;;19.97;62.67;101766.22;5038140;28;20026;-78
2023/05/06 07:47:31;;;;;;;0.10;0.10;;;;;;;20.03;62.57;101768.63;5052890;28;20033;-83
2023/05/06 07:49:59;;;;;;;0.35;0.35;;;;;;;20.06;62.43;101764.94;5056098;28;20033;-78
2023/05/06 07:52:26;;;;;;;0.10;0.10;;;;;;;20.11;62.45;101763.78;5051631;28;20038;-80
2023/05/06 07:54:52;;;;;;;0.10;0.10;;;;;;;20.19;62.49;101771.50;5045774;28;20030;-80
2023/05/06 07:57:19;;;;;;;0.22;0.22;;;;;;;20.26;62.34;101767.59;5028455;28;20037;-81
2023/05/06 07:59:49;;;;;;;1.00;0.90;;;;;;;20.39;62.45;101769.69;5043571;28;20093;-81
2023/05/06 08:02:16;;;;;;;0.10;0.10;;;;;;;20.44;62.08;101778.44;5041642;28;20038;-82
2023/05/06 08:04:42;;;;;;;0.10;0.10;;;;;;;20.50;61.95;101780.84;5037178;28;20041;-82
2023/05/06 08:07:09;;;;;;;0.10;0.10;;;;;;;20.54;61.93;101779.75;5034436;28;20132;-83
2023/05/06 08:09:35;;;;;;;0.10;0.10;;;;;;;20.57;61.82;101770.66;5037153;28;20013;-83
2023/05/06 08:12:01;;;;;;;0.10;0.10;;;;;;;20.60;61.81;101776.75;5038694;28;20044;-84
2023/05/06 08:14:27;;;;;;;0.10;0.10;;;;;;;20.61;61.67;101778.53;5045382;28;20039;-82
2023/05/06 08:16:54;;;;;;;0.10;0.10;;;;;;;20.62;61.62;101782.97;5031228;28;20487;-81
2023/05/06 08:19:20;;;;;;;0.10;0.10;;;;;;;20.63;61.31;101776.59;5034172;28;20056;-80
2023/05/06 08:21:47;;;;;;;0.10;0.10;;;;;;;20.66;61.52;101784.56;5027531;28;20030;-82
2023/05/06 08:24:13;;;;;;;0.10;0.10;;;;;;;20.68;61.61;101784.47;5033342;28;20044;-82
2023/05/06 08:26:40;;;;;;;0.10;0.10;;;;;;;20.72;61.60;101782.53;5030397;28;20029;-83
2023/05/06 08:29:06;;;;;;;0.10;0.10;;;;;;;20.76;61.38;101784.13;5043290;28;20095;-83
2023/05/06 08:31:33;;;;;;;0.10;0.10;;;;;;;20.82;61.33;101775.75;5045418;28;20034;-82
2023/05/06 08:33:59;;;;;;;0.10;0.10;;;;;;;20.89;61.08;101776.34;5040241;28;20154;-83
2023/05/06 08:36:26;;;;;;;0.00;0.00;;;;;;;20.95;60.73;101778.75;5042087;28;20044;-82
2023/05/06 08:38:52;;;;;;;0.00;0.00;;;;;;;21.01;60.71;101776.63;5039441;28;20087;-81
2023/05/06 08:41:21;;;;;;;0.10;0.10;;;;;;;21.09;60.69;101776.22;5041365;28;20022;-82
2023/05/06 08:43:49;;;;;;;0.10;0.10;;;;;;;21.19;60.57;101770.41;5040084;28;20025;-80
2023/05/06 08:46:16;;;;;;;1.85;0.73;;;;;;;21.29;60.53;101767.13;5045399;28;20017;-81
2023/05/06 08:48:42;;;;;;;0.10;0.10;;;;;;;21.38;59.81;101762.25;5037949;28;20045;-81
2023/05/06 08:51:12;;;;;;;0.10;0.10;;;;;;;21.42;59.97;101762.00;5037798;28;20025;-82
2023/05/06 08:53:41;;;;;;;0.10;0.10;;;;;;;21.49;59.82;101766.13;5040927;28;20029;-82
2023/05/06 08:56:09;;;;;;;0.10;0.10;;;;;;;21.54;59.63;101760.50;5045413;28;20074;-81
2023/05/06 08:58:37;;;;;;;0.10;0.10;;;;;;;21.57;59.60;101755.00;5038881;28;20029;-80
2023/05/06 09:01:04;;;;;;;0.10;0.10;;;;;;;21.62;59.21;101750.22;5041156;28;20025;-80
2023/05/06 09:03:30;;;;;;;0.20;0.20;;;;;;;21.65;58.83;101755.44;5041538;28;20080;-81
2023/05/06 09:05:57;;;;;;;0.10;0.10;;;;;;;21.70;59.22;101752.50;5043015;28;20475;-81
2023/05/06 09:08:23;;;;;;;0.20;0.20;;;;;;;21.74;59.06;101753.22;5044058;28;20044;-80
2023/05/06 09:10:49;;;;;;;0.10;0.10;;;;;;;21.76;58.81;101756.72;5050473;28;20016;-81
2023/05/06 09:13:17;;;;;;;0.30;0.30;;;;;;;21.82;58.96;101753.69;5047419;28;20029;-81
2023/05/06 09:15:46;;;;;;;0.10;0.10;;;;;;;21.87;58.28;101753.44;5049414;28;20033;-81
2023/05/06 09:18:13;;;;;;;0.20;0.20;;;;;;;21.89;58.47;101752.41;5044470;28;20041;-82
2023/05/06 09:20:42;;;;;;;0.20;0.20;;;;;;;21.95;58.49;101752.06;5041350;28;20026;-82
2023/05/06 09:23:10;;;;;;;0.15;0.15;;;;;;;22.04;58.57;101747.16;5041142;28;20030;-80
2023/05/06 09:25:37;;;;;;;0.13;0.13;;;;;;;22.06;58.09;101742.56;5044891;28;20033;-79
2023/05/06 09:28:05;;;;;;;0.10;0.10;;;;;;;22.13;58.23;101746.63;5043363;28;20064;-81
2023/05/06 09:30:31;;;;;;;0.10;0.10;;;;;;;22.24;58.17;101755.03;5041132;28;20025;-82
2023/05/06 09:32:57;;;;;;;0.10;0.10;;;;;;;22.33;57.55;101744.66;5039744;28;20025;-82
2023/05/06 09:35:27;;;;;;;0.10;0.10;;;;;;;22.47;57.41;101752.91;5045167;28;20033;-81
2023/05/06 09:37:55;;;;;;;0.22;0.22;;;;;;;22.58;57.11;101747.78;5039927;28;20033;-82
2023/05/06 09:40:23;;;;;;;0.57;0.57;;;;;;;22.69;56.46;101740.91;5049648;28;20089;-82
2023/05/06 09:42:50;;;;;;;1.27;0.65;;;;;;;22.69;55.07;101740.91;5044314;28;20037;-84
2023/05/06 09:45:16;;;;;;;0.10;0.10;;;;;;;22.72;55.41;101735.34;5047758;28;20037;-84
2023/05/06 09:47:43;;;;;;;0.55;0.55;;;;;;;22.76;56.48;101739.59;5050857;28;20032;-81
2023/05/06 09:50:12;;;;;;;1.90;0.82;;;;;;;22.75;55.80;101732.44;5040194;28;20096;-82
2023/05/06 09:52:38;;;;;;;0.10;0.10;;;;;;;22.76;55.86;101736.88;5042182;28;20086;-81
2023/05/06 09:55:06;;;;;;;0.15;0.15;;;;;;;22.76;56.12;101734.19;5053440;28;20045;-80
2023/05/06 09:57:32;;;;;;;0.47;0.47;;;;;;;22.73;55.98;101737.03;5049245;28;20654;-80
2023/05/06 10:00:01;;;;;;;0.08;0.08;;;;;;;22.73;55.53;101734.34;5048262;28;20471;-82
2023/05/06 10:02:28;;;;;;;0.40;0.40;;;;;;;22.72;55.60;101735.34;5052550;28;20052;-83
2023/05/06 10:04:57;;;;;;;0.55;0.55;;;;;;;22.69;56.02;101735.50;5049245;28;20147;-80
2023/05/06 10:07:27;;;;;;;0.13;0.10;;;;;;;22.82;55.29;101728.44;5039967;28;20100;-81
2023/05/06 10:09:57;;;;;;;0.13;0.13;;;;;;;22.93;55.30;101730.53;5046506;28;20033;-82
2023/05/06 10:12:24;;;;;;;0.10;0.10;;;;;;;23.00;54.82;101728.31;5048736;28;20025;-81
2023/05/06 10:14:50;;;;;;;0.10;0.10;;;;;;;23.08;54.37;101731.44;5044878;28;20026;-82
2023/05/06 10:17:17;;;;;;;0.20;0.20;;;;;;;23.26;54.61;101719.59;5045018;28;20030;-82
2023/05/06 10:19:45;;;;;;;0.10;0.10;;;;;;;23.35;53.80;101717.28;5044449;28;20033;-83
2023/05/06 10:25:02;;;;;;;0.57;0.57;;;;;;;23.68;53.93;101714.34;5100108;27;20404;-82
2023/05/06 10:27:31;;;;;;;0.10;0.10;;;;;;;23.77;52.56;101712.91;5085422;28;20501;-82
2023/05/06 10:29:59;;;;;;;0.57;0.40;;;;;;;23.88;53.39;101713.09;5091330;28;20024;-82
2023/05/06 10:32:30;;;;;;;0.10;0.10;;;;;;;23.93;52.53;101712.84;5086846;28;20033;-83
2023/05/06 10:35:08;;;;;;;0.40;0.40;;;;;;;24.02;52.41;101717.66;5090912;28;20028;-83
2023/05/06 10:37:35;;;;;;;0.30;0.30;;;;;;;24.11;52.39;101712.66;5085797;28;20493;-83
2023/05/06 10:40:03;;;;;;;0.10;0.10;;;;;;;24.12;52.46;101712.53;5086800;28;20402;-83
2023/05/06 10:42:34;;;;;;;0.10;0.10;;;;;;;24.25;52.12;101712.66;5092141;28;20059;-83
2023/05/06 10:45:02;;;;;;;0.03;0.03;;;;;;;24.29;51.65;101702.47;5084074;28;20029;-84
2023/05/06 10:50:27;;;;;;;0.10;0.10;;;;;;;24.43;51.45;101705.16;5119744;27;1175982;-81
2023/05/06 10:52:58;;;;;;;0.10;0.10;;;;;;;24.59;51.16;101713.16;5131249;27;20045;-81
2023/05/06 10:55:39;;;;;;;0.63;0.63;;;;;;;24.75;49.69;101701.31;5139737;27;20031;-83
2023/05/06 10:58:13;;;;;;;0.10;0.10;;;;;;;24.76;50.00;101701.25;5128647;28;20020;-82
2023/05/06 11:00:40;;;;;;;0.20;0.20;;;;;;;24.71;49.62;101698.81;5136024;27;20373;-83
2023/05/06 11:03:10;;;;;;;0.20;0.20;;;;;;;24.58;49.79;101699.72;5129782;27;20062;-83
2023/05/06 11:05:51;;;;;;;1.25;0.30;;;;;;;24.50;49.98;101694.78;5133076;27;20028;-80
2023/05/06 11:08:24;;;;;;;0.10;0.10;;;;;;;24.44;49.71;101696.06;5141267;27;20038;-81
2023/05/06 11:10:51;;;;;;;0.10;0.10;;;;;;;24.48;49.50;101697.59;5136242;27;20081;-82
2023/05/06 11:15:56;;;;;;;0.73;0.23;;;;;;;24.55;49.41;101693.50;5102152;27;1182154;-82
2023/05/06 11:26:23;;;;;;;0.43;0.43;;;;;;;24.70;48.78;101680.81;5124515;27;20388;-81
2023/05/06 11:28:50;;;;;;;0.10;0.10;;;;;;;24.76;48.06;101678.66;5105739;28;20045;-83
2023/05/06 11:31:20;;;;;;;0.25;0.25;;;;;;;24.80;48.23;101681.09;5113240;28;20032;-82
2023/05/06 11:33:49;;;;;;;0.55;0.30;;;;;;;24.90;48.00;101675.03;5103479;28;20020;-82
2023/05/06 11:36:17;;;;;;;0.50;0.50;;;;;;;25.01;47.09;101691.44;5092358;28;20393;-83
2023/05/06 11:38:46;;;;;;;0.32;0.32;;;;;;;25.11;46.94;101683.53;5095066;28;20082;-84
2023/05/06 11:41:15;;;;;;;0.10;0.10;;;;;;;25.14;46.71;101678.78;5085573;28;20096;-83
2023/05/06 11:43:46;;;;;;;0.60;0.60;;;;;;;25.24;46.87;101672.72;5100639;28;20500;-83
2023/05/06 11:46:12;;;;;;;0.10;0.10;;;;;;;25.29;46.70;101678.72;5096413;28;20025;-81